createdAt,value
2017-10-17T17:59:30.992Z,96.60
2017-10-17T18:02:01.187Z,97.00
2017-10-17T18:04:30.967Z,97.00
2017-10-17T18:07:01.309Z,97.30
2017-10-17T18:09:31.730Z,97.80
2017-10-17T18:12:01.414Z,97.80
2017-10-17T18:14:31.520Z,98.30
2017-10-17T18:17:03.537Z,98.30
2017-10-17T18:19:34.715Z,98.20
2017-10-17T18:22:04.581Z,97.70
2017-10-17T18:24:34.983Z,98.00
2017-10-17T18:27:05.118Z,98.00
2017-10-17T18:29:35.681Z,98.20
2017-10-17T18:32:06.189Z,98.00
2017-10-17T18:34:36.684Z,98.00
2017-10-17T18:37:09.337Z,98.00
2017-10-17T18:39:41.003Z,97.60
2017-10-17T18:42:11.134Z,97.40
2017-10-17T18:44:40.975Z,97.50
2017-10-17T18:47:11.087Z,97.90
2017-10-17T18:49:40.892Z,97.80
2017-10-17T18:52:11.229Z,99.00
2017-10-17T18:54:41.208Z,99.30
2017-10-17T18:57:11.030Z,99.70
2017-10-17T18:59:41.070Z,99.80
2017-10-17T19:02:10.948Z,99.50
2017-10-17T19:04:41.283Z,99.70
2017-10-17T19:07:11.310Z,99.80
2017-10-17T19:09:42.102Z,99.50
2017-10-17T19:12:12.644Z,98.60
2017-10-17T19:14:42.357Z,98.30
2017-10-17T19:17:14.021Z,97.90
2017-10-17T19:19:45.305Z,97.30
2017-10-17T19:22:15.567Z,96.60
2017-10-17T19:24:46.026Z,95.90
2017-10-17T19:27:16.353Z,95.90
2017-10-17T19:29:46.279Z,96.10
2017-10-17T19:32:16.648Z,96.00
2017-10-17T19:34:46.524Z,95.50
2017-10-17T19:37:16.899Z,95.50
2017-10-17T19:39:48.318Z,96.00
2017-10-17T19:42:19.043Z,95.70
2017-10-17T19:44:48.904Z,96.30
2017-10-17T19:47:18.961Z,95.70
2017-10-17T19:49:49.099Z,96.40
2017-10-17T19:52:19.119Z,96.70
2017-10-17T19:54:49.467Z,96.50
2017-10-17T19:57:19.536Z,97.80
2017-10-17T19:59:49.666Z,97.40
2017-10-17T20:02:21.216Z,97.90
2017-10-17T20:04:50.884Z,97.90
2017-10-17T20:07:20.538Z,97.40
2017-10-17T20:09:50.963Z,96.60
2017-10-17T20:12:20.952Z,96.00
2017-10-17T20:14:52.080Z,95.70
2017-10-17T20:17:21.846Z,95.50
2017-10-17T20:19:51.871Z,95.30
2017-10-17T20:22:21.558Z,95.20
2017-10-17T20:24:51.278Z,95.30
2017-10-17T20:27:22.624Z,94.90
2017-10-17T20:29:53.145Z,95.00
2017-10-17T20:32:23.160Z,95.70
2017-10-17T20:34:54.567Z,96.40
2017-10-17T20:37:24.618Z,95.80
2017-10-17T20:39:54.958Z,97.10
2017-10-17T20:42:25.043Z,97.70
2017-10-17T20:44:55.024Z,97.80
2017-10-17T20:47:25.147Z,97.60
2017-10-17T20:49:54.798Z,96.50
2017-10-17T20:52:25.166Z,97.00
2017-10-17T20:54:55.127Z,96.70
2017-10-17T20:57:25.760Z,97.30
2017-10-17T20:59:56.935Z,97.00
2017-10-17T21:02:26.906Z,96.90
2017-10-17T21:04:57.402Z,96.80
2017-10-17T21:07:27.267Z,96.20
2017-10-17T21:09:57.252Z,96.10
2017-10-17T21:12:27.207Z,96.30
2017-10-17T21:14:57.278Z,96.10
2017-10-17T21:17:27.195Z,95.90
2017-10-17T21:19:56.992Z,95.60
2017-10-17T21:22:27.766Z,95.60
2017-10-17T21:24:59.146Z,95.50
2017-10-17T21:27:28.955Z,95.50
2017-10-17T21:29:59.246Z,95.30
2017-10-17T21:32:29.877Z,95.50
2017-10-17T21:34:59.597Z,95.20
2017-10-17T21:37:30.291Z,95.20
2017-10-17T21:40:00.248Z,95.20
2017-10-17T21:42:31.133Z,94.90
2017-10-17T21:45:01.565Z,94.90
2017-10-17T21:47:31.485Z,94.90
2017-10-17T21:50:01.328Z,95.30
2017-10-17T21:52:31.793Z,95.10
2017-10-17T21:55:01.770Z,95.00
2017-10-17T21:57:32.118Z,95.10
2017-10-17T22:00:01.871Z,95.50
2017-10-17T22:02:31.497Z,96.10
2017-10-17T22:05:02.375Z,95.80
2017-10-17T22:07:31.979Z,95.60
2017-10-17T22:10:01.618Z,96.00
2017-10-17T22:12:31.483Z,95.70
2017-10-17T22:15:01.381Z,95.30
2017-10-17T22:17:32.061Z,95.50
2017-10-17T22:20:01.713Z,95.20
2017-10-17T22:22:32.121Z,94.50
2017-10-17T22:25:02.969Z,94.50
2017-10-17T22:27:32.998Z,94.30
2017-10-17T22:30:02.922Z,94.30
2017-10-17T22:32:32.986Z,94.30
2017-10-17T22:35:03.143Z,94.40
2017-10-17T22:37:33.619Z,94.50
2017-10-17T22:40:04.364Z,95.10
2017-10-17T22:42:34.311Z,95.10
2017-10-17T22:45:04.998Z,94.70
